sensor_id;sensor_type;location;lat;lon;timestamp;P1;durP1;ratioP1;P2;durP2;ratioP2
85293;SDS011;76388;43.958;2.882;2024-03-17T00:00:34;12.10;;;3.17;;
85293;SDS011;76388;43.958;2.882;2024-03-17T00:03:00;9.30;;;3.38;;
85293;SDS011;76388;43.958;2.882;2024-03-17T00:05:26;8.02;;;2.80;;
85293;SDS011;76388;43.958;2.882;2024-03-17T00:07:52;9.23;;;2.88;;
85293;SDS011;76388;43.958;2.882;2024-03-17T00:10:19;8.65;;;3.45;;
85293;SDS011;76388;43.958;2.882;2024-03-17T00:12:45;6.70;;;2.30;;
85293;SDS011;76388;43.958;2.882;2024-03-17T00:15:11;6.53;;;2.10;;
85293;SDS011;76388;43.958;2.882;2024-03-17T00:17:37;8.30;;;2.40;;
85293;SDS011;76388;43.958;2.882;2024-03-17T00:20:03;7.10;;;2.20;;
85293;SDS011;76388;43.958;2.882;2024-03-17T00:25:05;8.55;;;2.50;;
85293;SDS011;76388;43.958;2.882;2024-03-17T00:27:31;10.27;;;2.55;;
85293;SDS011;76388;43.958;2.882;2024-03-17T00:29:58;7.90;;;2.13;;
85293;SDS011;76388;43.958;2.882;2024-03-17T00:32:24;6.95;;;2.58;;
85293;SDS011;76388;43.958;2.882;2024-03-17T00:34:50;8.27;;;2.28;;
85293;SDS011;76388;43.958;2.882;2024-03-17T00:37:17;8.88;;;2.70;;
85293;SDS011;76388;43.958;2.882;2024-03-17T00:39:43;13.10;;;4.10;;
85293;SDS011;76388;43.958;2.882;2024-03-17T00:42:09;9.13;;;3.00;;
85293;SDS011;76388;43.958;2.882;2024-03-17T00:44:35;7.75;;;2.55;;
85293;SDS011;76388;43.958;2.882;2024-03-17T00:47:01;9.43;;;2.42;;
85293;SDS011;76388;43.958;2.882;2024-03-17T00:49:28;7.70;;;2.83;;
85293;SDS011;76388;43.958;2.882;2024-03-17T00:51:54;12.38;;;3.78;;
85293;SDS011;76388;43.958;2.882;2024-03-17T00:54:20;13.68;;;4.40;;
85293;SDS011;76388;43.958;2.882;2024-03-17T00:56:47;12.45;;;4.40;;
85293;SDS011;76388;43.958;2.882;2024-03-17T00:59:13;11.27;;;3.50;;
85293;SDS011;76388;43.958;2.882;2024-03-17T01:01:40;9.32;;;2.40;;
85293;SDS011;76388;43.958;2.882;2024-03-17T01:04:06;9.55;;;2.63;;
85293;SDS011;76388;43.958;2.882;2024-03-17T01:06:32;6.93;;;2.00;;
85293;SDS011;76388;43.958;2.882;2024-03-17T01:08:58;6.22;;;2.10;;
85293;SDS011;76388;43.958;2.882;2024-03-17T01:11:24;7.40;;;2.30;;
85293;SDS011;76388;43.958;2.882;2024-03-17T01:13:50;8.73;;;1.85;;
85293;SDS011;76388;43.958;2.882;2024-03-17T01:16:16;8.93;;;2.38;;
85293;SDS011;76388;43.958;2.882;2024-03-17T01:18:42;6.15;;;1.90;;
85293;SDS011;76388;43.958;2.882;2024-03-17T01:21:11;7.20;;;2.22;;
85293;SDS011;76388;43.958;2.882;2024-03-17T01:23:37;7.30;;;1.90;;
85293;SDS011;76388;43.958;2.882;2024-03-17T01:26:03;5.65;;;1.75;;
85293;SDS011;76388;43.958;2.882;2024-03-17T01:28:29;9.07;;;2.08;;
85293;SDS011;76388;43.958;2.882;2024-03-17T01:30:55;5.70;;;1.88;;
85293;SDS011;76388;43.958;2.882;2024-03-17T01:33:21;6.43;;;1.77;;
85293;SDS011;76388;43.958;2.882;2024-03-17T01:35:47;6.25;;;1.75;;
85293;SDS011;76388;43.958;2.882;2024-03-17T01:38:14;6.60;;;1.73;;
85293;SDS011;76388;43.958;2.882;2024-03-17T01:40:40;6.63;;;2.10;;
85293;SDS011;76388;43.958;2.882;2024-03-17T01:43:09;7.00;;;2.10;;
85293;SDS011;76388;43.958;2.882;2024-03-17T01:45:35;5.82;;;1.58;;
85293;SDS011;76388;43.958;2.882;2024-03-17T01:48:02;6.28;;;1.70;;
85293;SDS011;76388;43.958;2.882;2024-03-17T01:50:33;4.65;;;1.70;;
85293;SDS011;76388;43.958;2.882;2024-03-17T01:53:02;6.82;;;1.85;;
85293;SDS011;76388;43.958;2.882;2024-03-17T01:55:32;4.70;;;1.70;;
85293;SDS011;76388;43.958;2.882;2024-03-17T01:57:59;5.72;;;1.80;;
85293;SDS011;76388;43.958;2.882;2024-03-17T02:00:25;8.55;;;1.95;;
85293;SDS011;76388;43.958;2.882;2024-03-17T02:02:52;5.65;;;1.70;;
85293;SDS011;76388;43.958;2.882;2024-03-17T02:05:18;4.75;;;1.40;;
85293;SDS011;76388;43.958;2.882;2024-03-17T02:07:44;5.10;;;1.85;;
85293;SDS011;76388;43.958;2.882;2024-03-17T02:10:10;6.18;;;1.83;;
85293;SDS011;76388;43.958;2.882;2024-03-17T02:12:38;6.25;;;1.60;;
85293;SDS011;76388;43.958;2.882;2024-03-17T02:15:04;3.53;;;1.55;;
85293;SDS011;76388;43.958;2.882;2024-03-17T02:17:31;5.53;;;1.80;;
85293;SDS011;76388;43.958;2.882;2024-03-17T02:19:58;7.13;;;1.70;;
85293;SDS011;76388;43.958;2.882;2024-03-17T02:22:25;7.45;;;1.92;;
85293;SDS011;76388;43.958;2.882;2024-03-17T02:24:53;8.60;;;1.75;;
85293;SDS011;76388;43.958;2.882;2024-03-17T02:27:19;6.35;;;1.70;;
85293;SDS011;76388;43.958;2.882;2024-03-17T02:29:45;4.55;;;1.60;;
85293;SDS011;76388;43.958;2.882;2024-03-17T02:32:12;5.90;;;1.65;;
85293;SDS011;76388;43.958;2.882;2024-03-17T02:34:38;5.47;;;1.85;;
85293;SDS011;76388;43.958;2.882;2024-03-17T02:37:05;4.80;;;1.70;;
85293;SDS011;76388;43.958;2.882;2024-03-17T02:39:32;5.93;;;1.65;;
85293;SDS011;76388;43.958;2.882;2024-03-17T02:42:00;7.47;;;2.00;;
85293;SDS011;76388;43.958;2.882;2024-03-17T02:44:27;4.72;;;1.80;;
85293;SDS011;76388;43.958;2.882;2024-03-17T02:46:56;6.10;;;1.67;;
85293;SDS011;76388;43.958;2.882;2024-03-17T02:49:26;5.00;;;1.90;;
85293;SDS011;76388;43.958;2.882;2024-03-17T02:51:54;5.88;;;1.60;;
85293;SDS011;76388;43.958;2.882;2024-03-17T02:54:20;7.70;;;1.80;;
85293;SDS011;76388;43.958;2.882;2024-03-17T02:56:47;6.05;;;1.75;;
85293;SDS011;76388;43.958;2.882;2024-03-17T02:59:15;5.13;;;1.80;;
85293;SDS011;76388;43.958;2.882;2024-03-17T03:01:41;6.03;;;1.60;;
85293;SDS011;76388;43.958;2.882;2024-03-17T03:04:07;4.35;;;1.58;;
85293;SDS011;76388;43.958;2.882;2024-03-17T03:06:33;6.63;;;1.67;;
85293;SDS011;76388;43.958;2.882;2024-03-17T03:08:59;6.13;;;2.00;;
85293;SDS011;76388;43.958;2.882;2024-03-17T03:11:25;6.40;;;1.80;;
85293;SDS011;76388;43.958;2.882;2024-03-17T03:13:51;4.93;;;1.83;;
85293;SDS011;76388;43.958;2.882;2024-03-17T03:16:18;5.90;;;1.98;;
85293;SDS011;76388;43.958;2.882;2024-03-17T03:18:44;5.40;;;1.70;;
85293;SDS011;76388;43.958;2.882;2024-03-17T03:21:11;6.32;;;1.70;;
85293;SDS011;76388;43.958;2.882;2024-03-17T03:23:38;5.75;;;1.67;;
85293;SDS011;76388;43.958;2.882;2024-03-17T03:26:05;4.70;;;1.48;;
85293;SDS011;76388;43.958;2.882;2024-03-17T03:28:34;5.80;;;1.80;;
85293;SDS011;76388;43.958;2.882;2024-03-17T03:31:01;7.50;;;1.90;;
85293;SDS011;76388;43.958;2.882;2024-03-17T03:33:27;6.85;;;1.70;;
85293;SDS011;76388;43.958;2.882;2024-03-17T03:35:54;5.63;;;1.70;;
85293;SDS011;76388;43.958;2.882;2024-03-17T03:38:20;4.88;;;1.73;;
85293;SDS011;76388;43.958;2.882;2024-03-17T03:40:47;6.63;;;1.85;;
85293;SDS011;76388;43.958;2.882;2024-03-17T03:43:14;5.53;;;1.88;;
85293;SDS011;76388;43.958;2.882;2024-03-17T03:45:40;7.95;;;1.75;;
85293;SDS011;76388;43.958;2.882;2024-03-17T03:48:07;6.30;;;1.92;;
85293;SDS011;76388;43.958;2.882;2024-03-17T03:50:34;5.70;;;1.58;;
85293;SDS011;76388;43.958;2.882;2024-03-17T03:53:00;6.75;;;1.77;;
85293;SDS011;76388;43.958;2.882;2024-03-17T03:55:26;5.95;;;1.80;;
85293;SDS011;76388;43.958;2.882;2024-03-17T03:57:53;7.95;;;1.70;;
85293;SDS011;76388;43.958;2.882;2024-03-17T04:00:20;5.63;;;1.60;;
85293;SDS011;76388;43.958;2.882;2024-03-17T04:02:47;5.38;;;1.63;;
85293;SDS011;76388;43.958;2.882;2024-03-17T04:05:15;7.13;;;1.80;;
85293;SDS011;76388;43.958;2.882;2024-03-17T04:07:41;7.80;;;1.58;;
85293;SDS011;76388;43.958;2.882;2024-03-17T04:10:08;7.50;;;1.50;;
85293;SDS011;76388;43.958;2.882;2024-03-17T04:12:35;6.15;;;1.42;;
85293;SDS011;76388;43.958;2.882;2024-03-17T04:15:01;4.25;;;1.50;;
85293;SDS011;76388;43.958;2.882;2024-03-17T04:17:28;6.50;;;1.60;;
85293;SDS011;76388;43.958;2.882;2024-03-17T04:19:54;5.97;;;1.40;;
85293;SDS011;76388;43.958;2.882;2024-03-17T04:22:21;5.25;;;1.50;;
85293;SDS011;76388;43.958;2.882;2024-03-17T04:24:48;3.78;;;1.52;;
85293;SDS011;76388;43.958;2.882;2024-03-17T04:27:19;4.28;;;1.55;;
85293;SDS011;76388;43.958;2.882;2024-03-17T04:29:47;3.63;;;1.40;;
85293;SDS011;76388;43.958;2.882;2024-03-17T04:32:13;5.28;;;1.50;;
85293;SDS011;76388;43.958;2.882;2024-03-17T04:34:39;6.30;;;1.75;;
85293;SDS011;76388;43.958;2.882;2024-03-17T04:37:06;5.32;;;1.45;;
85293;SDS011;76388;43.958;2.882;2024-03-17T04:39:32;5.32;;;1.55;;
85293;SDS011;76388;43.958;2.882;2024-03-17T04:41:59;6.25;;;1.70;;
85293;SDS011;76388;43.958;2.882;2024-03-17T04:44:25;5.32;;;1.50;;
85293;SDS011;76388;43.958;2.882;2024-03-17T04:46:51;4.60;;;1.55;;
85293;SDS011;76388;43.958;2.882;2024-03-17T04:49:17;6.07;;;1.67;;
85293;SDS011;76388;43.958;2.882;2024-03-17T04:51:43;5.35;;;1.67;;
85293;SDS011;76388;43.958;2.882;2024-03-17T04:54:09;6.97;;;1.50;;
85293;SDS011;76388;43.958;2.882;2024-03-17T04:56:36;7.38;;;1.60;;
85293;SDS011;76388;43.958;2.882;2024-03-17T04:59:02;4.57;;;1.73;;
85293;SDS011;76388;43.958;2.882;2024-03-17T05:01:28;5.53;;;1.63;;
85293;SDS011;76388;43.958;2.882;2024-03-17T05:03:56;5.68;;;1.60;;
85293;SDS011;76388;43.958;2.882;2024-03-17T05:06:22;4.63;;;1.52;;
85293;SDS011;76388;43.958;2.882;2024-03-17T05:08:49;6.25;;;1.70;;
85293;SDS011;76388;43.958;2.882;2024-03-17T05:11:15;6.35;;;1.80;;
85293;SDS011;76388;43.958;2.882;2024-03-17T05:13:41;8.45;;;1.73;;
85293;SDS011;76388;43.958;2.882;2024-03-17T05:16:07;6.00;;;1.95;;
85293;SDS011;76388;43.958;2.882;2024-03-17T05:18:33;6.57;;;1.77;;
85293;SDS011;76388;43.958;2.882;2024-03-17T05:21:01;5.57;;;1.77;;
85293;SDS011;76388;43.958;2.882;2024-03-17T05:23:29;5.03;;;1.60;;
85293;SDS011;76388;43.958;2.882;2024-03-17T05:25:56;6.07;;;1.70;;
85293;SDS011;76388;43.958;2.882;2024-03-17T05:28:23;6.03;;;1.70;;
85293;SDS011;76388;43.958;2.882;2024-03-17T05:30:50;5.57;;;1.70;;
85293;SDS011;76388;43.958;2.882;2024-03-17T05:33:17;6.20;;;1.77;;
85293;SDS011;76388;43.958;2.882;2024-03-17T05:35:48;5.72;;;1.80;;
85293;SDS011;76388;43.958;2.882;2024-03-17T05:38:21;6.50;;;1.70;;
85293;SDS011;76388;43.958;2.882;2024-03-17T05:45:46;4.90;;;1.60;;
85293;SDS011;76388;43.958;2.882;2024-03-17T05:48:13;5.60;;;1.80;;
85293;SDS011;76388;43.958;2.882;2024-03-17T05:50:39;7.47;;;1.77;;
85293;SDS011;76388;43.958;2.882;2024-03-17T05:53:05;6.57;;;2.00;;
85293;SDS011;76388;43.958;2.882;2024-03-17T05:55:31;5.43;;;1.80;;
85293;SDS011;76388;43.958;2.882;2024-03-17T05:57:57;5.90;;;1.80;;
85293;SDS011;76388;43.958;2.882;2024-03-17T06:00:23;5.47;;;1.58;;
85293;SDS011;76388;43.958;2.882;2024-03-17T06:02:49;6.03;;;2.05;;
85293;SDS011;76388;43.958;2.882;2024-03-17T06:05:15;6.85;;;1.88;;
85293;SDS011;76388;43.958;2.882;2024-03-17T06:07:42;7.50;;;1.90;;
85293;SDS011;76388;43.958;2.882;2024-03-17T06:10:08;6.40;;;1.80;;
85293;SDS011;76388;43.958;2.882;2024-03-17T06:12:34;5.75;;;1.80;;
85293;SDS011;76388;43.958;2.882;2024-03-17T06:15:02;5.10;;;1.70;;
85293;SDS011;76388;43.958;2.882;2024-03-17T06:17:28;10.48;;;2.05;;
85293;SDS011;76388;43.958;2.882;2024-03-17T06:19:55;7.25;;;2.08;;
85293;SDS011;76388;43.958;2.882;2024-03-17T06:22:22;6.93;;;2.00;;
85293;SDS011;76388;43.958;2.882;2024-03-17T06:24:49;5.93;;;1.90;;
85293;SDS011;76388;43.958;2.882;2024-03-17T06:27:16;5.45;;;1.75;;
85293;SDS011;76388;43.958;2.882;2024-03-17T06:29:42;7.95;;;1.90;;
85293;SDS011;76388;43.958;2.882;2024-03-17T06:32:08;4.28;;;1.52;;
85293;SDS011;76388;43.958;2.882;2024-03-17T06:34:34;6.30;;;2.10;;
85293;SDS011;76388;43.958;2.882;2024-03-17T06:37:00;5.47;;;1.80;;
85293;SDS011;76388;43.958;2.882;2024-03-17T06:39:26;7.43;;;1.85;;
85293;SDS011;76388;43.958;2.882;2024-03-17T06:41:52;5.82;;;1.95;;
85293;SDS011;76388;43.958;2.882;2024-03-17T06:44:19;7.15;;;2.58;;
85293;SDS011;76388;43.958;2.882;2024-03-17T06:46:46;7.20;;;1.83;;
85293;SDS011;76388;43.958;2.882;2024-03-17T06:49:13;6.75;;;2.00;;
85293;SDS011;76388;43.958;2.882;2024-03-17T06:51:39;7.10;;;2.42;;
85293;SDS011;76388;43.958;2.882;2024-03-17T06:54:05;5.60;;;1.90;;
85293;SDS011;76388;43.958;2.882;2024-03-17T06:56:31;5.93;;;1.83;;
85293;SDS011;76388;43.958;2.882;2024-03-17T06:58:58;6.35;;;1.98;;
85293;SDS011;76388;43.958;2.882;2024-03-17T07:01:24;5.50;;;1.88;;
85293;SDS011;76388;43.958;2.882;2024-03-17T07:03:50;6.00;;;1.95;;
85293;SDS011;76388;43.958;2.882;2024-03-17T07:06:16;6.00;;;2.10;;
85293;SDS011;76388;43.958;2.882;2024-03-17T07:08:42;4.82;;;1.80;;
85293;SDS011;76388;43.958;2.882;2024-03-17T07:11:08;8.18;;;1.88;;
85293;SDS011;76388;43.958;2.882;2024-03-17T07:13:35;5.53;;;1.92;;
85293;SDS011;76388;43.958;2.882;2024-03-17T07:16:03;4.45;;;1.70;;
85293;SDS011;76388;43.958;2.882;2024-03-17T07:18:33;5.55;;;1.70;;
85293;SDS011;76388;43.958;2.882;2024-03-17T07:21:00;3.92;;;1.50;;
85293;SDS011;76388;43.958;2.882;2024-03-17T07:23:30;4.63;;;1.60;;
85293;SDS011;76388;43.958;2.882;2024-03-17T07:25:57;3.60;;;1.60;;
85293;SDS011;76388;43.958;2.882;2024-03-17T07:28:25;6.57;;;1.80;;
85293;SDS011;76388;43.958;2.882;2024-03-17T07:33:19;7.03;;;1.95;;
85293;SDS011;76388;43.958;2.882;2024-03-17T07:35:47;5.15;;;1.70;;
85293;SDS011;76388;43.958;2.882;2024-03-17T07:38:14;5.85;;;2.05;;
85293;SDS011;76388;43.958;2.882;2024-03-17T07:40:41;10.00;;;3.30;;
85293;SDS011;76388;43.958;2.882;2024-03-17T07:43:07;9.68;;;3.40;;
85293;SDS011;76388;43.958;2.882;2024-03-17T07:45:33;8.80;;;2.40;;
85293;SDS011;76388;43.958;2.882;2024-03-17T07:47:59;5.47;;;2.13;;
85293;SDS011;76388;43.958;2.882;2024-03-17T07:50:26;5.20;;;1.90;;
85293;SDS011;76388;43.958;2.882;2024-03-17T07:52:52;5.57;;;2.05;;
85293;SDS011;76388;43.958;2.882;2024-03-17T07:55:18;6.78;;;2.60;;
85293;SDS011;76388;43.958;2.882;2024-03-17T07:57:44;4.88;;;1.70;;
85293;SDS011;76388;43.958;2.882;2024-03-17T08:00:11;5.85;;;2.15;;
85293;SDS011;76388;43.958;2.882;2024-03-17T08:02:44;7.63;;;2.10;;
85293;SDS011;76388;43.958;2.882;2024-03-17T08:05:11;6.88;;;1.73;;
85293;SDS011;76388;43.958;2.882;2024-03-17T08:07:37;5.40;;;1.98;;
85293;SDS011;76388;43.958;2.882;2024-03-17T08:10:03;4.25;;;1.55;;
85293;SDS011;76388;43.958;2.882;2024-03-17T08:12:30;6.43;;;1.80;;
85293;SDS011;76388;43.958;2.882;2024-03-17T08:14:56;7.25;;;2.13;;
85293;SDS011;76388;43.958;2.882;2024-03-17T08:17:23;8.15;;;3.00;;
85293;SDS011;76388;43.958;2.882;2024-03-17T08:19:49;7.55;;;2.58;;
85293;SDS011;76388;43.958;2.882;2024-03-17T08:22:15;6.63;;;2.45;;
85293;SDS011;76388;43.958;2.882;2024-03-17T08:24:41;6.90;;;2.50;;
85293;SDS011;76388;43.958;2.882;2024-03-17T08:27:07;6.15;;;2.13;;
85293;SDS011;76388;43.958;2.882;2024-03-17T08:29:34;7.90;;;2.28;;
85293;SDS011;76388;43.958;2.882;2024-03-17T08:32:00;7.47;;;2.10;;
85293;SDS011;76388;43.958;2.882;2024-03-17T08:34:26;5.82;;;1.83;;
85293;SDS011;76388;43.958;2.882;2024-03-17T08:36:52;8.77;;;2.60;;
85293;SDS011;76388;43.958;2.882;2024-03-17T08:39:18;6.38;;;2.17;;
85293;SDS011;76388;43.958;2.882;2024-03-17T08:41:45;7.57;;;2.17;;
85293;SDS011;76388;43.958;2.882;2024-03-17T08:44:11;6.57;;;1.90;;
85293;SDS011;76388;43.958;2.882;2024-03-17T08:46:38;6.28;;;1.75;;
85293;SDS011;76388;43.958;2.882;2024-03-17T08:49:04;6.57;;;2.03;;
85293;SDS011;76388;43.958;2.882;2024-03-17T08:51:30;6.47;;;2.25;;
85293;SDS011;76388;43.958;2.882;2024-03-17T08:53:57;6.85;;;2.50;;
85293;SDS011;76388;43.958;2.882;2024-03-17T08:56:23;12.75;;;4.03;;
85293;SDS011;76388;43.958;2.882;2024-03-17T08:58:49;8.02;;;2.53;;
85293;SDS011;76388;43.958;2.882;2024-03-17T09:01:16;6.68;;;1.70;;
85293;SDS011;76388;43.958;2.882;2024-03-17T09:03:42;7.65;;;2.03;;
85293;SDS011;76388;43.958;2.882;2024-03-17T09:06:14;8.93;;;2.67;;
85293;SDS011;76388;43.958;2.882;2024-03-17T09:08:41;7.28;;;2.50;;
85293;SDS011;76388;43.958;2.882;2024-03-17T09:11:11;7.65;;;2.70;;
85293;SDS011;76388;43.958;2.882;2024-03-17T09:13:38;5.22;;;1.90;;
85293;SDS011;76388;43.958;2.882;2024-03-17T09:16:04;6.47;;;1.70;;
85293;SDS011;76388;43.958;2.882;2024-03-17T09:18:32;6.35;;;1.90;;
85293;SDS011;76388;43.958;2.882;2024-03-17T09:23:28;5.82;;;1.77;;
85293;SDS011;76388;43.958;2.882;2024-03-17T09:25:58;5.88;;;1.80;;
85293;SDS011;76388;43.958;2.882;2024-03-17T09:28:26;6.43;;;2.08;;
85293;SDS011;76388;43.958;2.882;2024-03-17T09:30:53;9.55;;;2.00;;
85293;SDS011;76388;43.958;2.882;2024-03-17T09:33:20;5.72;;;1.90;;
85293;SDS011;76388;43.958;2.882;2024-03-17T09:35:54;7.93;;;2.00;;
85293;SDS011;76388;43.958;2.882;2024-03-17T09:38:21;7.38;;;2.00;;
85293;SDS011;76388;43.958;2.882;2024-03-17T09:40:48;5.63;;;1.90;;
85293;SDS011;76388;43.958;2.882;2024-03-17T09:43:18;6.20;;;2.20;;
85293;SDS011;76388;43.958;2.882;2024-03-17T09:45:45;7.60;;;1.92;;
85293;SDS011;76388;43.958;2.882;2024-03-17T09:48:15;6.65;;;2.10;;
85293;SDS011;76388;43.958;2.882;2024-03-17T09:50:50;6.25;;;2.00;;
85293;SDS011;76388;43.958;2.882;2024-03-17T09:53:20;4.93;;;1.90;;
85293;SDS011;76388;43.958;2.882;2024-03-17T09:55:49;6.78;;;1.90;;
85293;SDS011;76388;43.958;2.882;2024-03-17T09:58:16;6.40;;;1.88;;
85293;SDS011;76388;43.958;2.882;2024-03-17T10:00:43;5.55;;;1.90;;
85293;SDS011;76388;43.958;2.882;2024-03-17T10:03:09;4.75;;;1.73;;
85293;SDS011;76388;43.958;2.882;2024-03-17T10:05:35;5.05;;;1.70;;
85293;SDS011;76388;43.958;2.882;2024-03-17T10:08:01;5.32;;;1.70;;
85293;SDS011;76388;43.958;2.882;2024-03-17T10:10:28;5.70;;;1.85;;
85293;SDS011;76388;43.958;2.882;2024-03-17T10:12:54;5.63;;;1.90;;
85293;SDS011;76388;43.958;2.882;2024-03-17T10:15:20;5.03;;;1.70;;
85293;SDS011;76388;43.958;2.882;2024-03-17T10:17:47;4.95;;;1.70;;
85293;SDS011;76388;43.958;2.882;2024-03-17T10:20:13;7.15;;;2.08;;
85293;SDS011;76388;43.958;2.882;2024-03-17T10:22:57;7.90;;;1.63;;
85293;SDS011;76388;43.958;2.882;2024-03-17T10:25:26;4.85;;;1.55;;
85293;SDS011;76388;43.958;2.882;2024-03-17T10:27:53;5.55;;;1.55;;
85293;SDS011;76388;43.958;2.882;2024-03-17T10:30:22;5.38;;;1.40;;
85293;SDS011;76388;43.958;2.882;2024-03-17T10:32:52;4.18;;;1.50;;
85293;SDS011;76388;43.958;2.882;2024-03-17T10:35:25;6.60;;;2.15;;
85293;SDS011;76388;43.958;2.882;2024-03-17T10:37:53;4.90;;;1.60;;
85293;SDS011;76388;43.958;2.882;2024-03-17T10:40:24;6.82;;;1.90;;
85293;SDS011;76388;43.958;2.882;2024-03-17T10:42:51;5.38;;;1.60;;
85293;SDS011;76388;43.958;2.882;2024-03-17T10:45:17;5.40;;;1.98;;
85293;SDS011;76388;43.958;2.882;2024-03-17T10:47:46;6.90;;;1.63;;
85293;SDS011;76388;43.958;2.882;2024-03-17T10:50:17;6.63;;;1.70;;
85293;SDS011;76388;43.958;2.882;2024-03-17T10:52:46;5.97;;;1.60;;
85293;SDS011;76388;43.958;2.882;2024-03-17T10:55:23;6.03;;;1.77;;
85293;SDS011;76388;43.958;2.882;2024-03-17T10:57:51;4.97;;;1.70;;
85293;SDS011;76388;43.958;2.882;2024-03-17T11:00:20;5.25;;;1.80;;
85293;SDS011;76388;43.958;2.882;2024-03-17T11:02:48;5.93;;;1.63;;
85293;SDS011;76388;43.958;2.882;2024-03-17T11:05:24;5.57;;;2.00;;
85293;SDS011;76388;43.958;2.882;2024-03-17T11:07:58;5.22;;;1.70;;
85293;SDS011;76388;43.958;2.882;2024-03-17T11:10:28;4.82;;;1.50;;
85293;SDS011;76388;43.958;2.882;2024-03-17T11:12:56;4.82;;;1.77;;
85293;SDS011;76388;43.958;2.882;2024-03-17T11:17:52;4.95;;;1.67;;
85293;SDS011;76388;43.958;2.882;2024-03-17T11:22:51;6.30;;;1.60;;
85293;SDS011;76388;43.958;2.882;2024-03-17T11:27:56;5.10;;;1.50;;
85293;SDS011;76388;43.958;2.882;2024-03-17T11:38:53;5.63;;;1.80;;
85293;SDS011;76388;43.958;2.882;2024-03-17T11:46:41;6.40;;;2.05;;
85293;SDS011;76388;43.958;2.882;2024-03-17T11:49:16;7.82;;;2.70;;
85293;SDS011;76388;43.958;2.882;2024-03-17T11:51:49;5.45;;;2.10;;
85293;SDS011;76388;43.958;2.882;2024-03-17T11:54:16;5.70;;;2.30;;
85293;SDS011;76388;43.958;2.882;2024-03-17T11:56:45;7.95;;;2.88;;
85293;SDS011;76388;43.958;2.882;2024-03-17T11:59:11;6.57;;;2.75;;
85293;SDS011;76388;43.958;2.882;2024-03-17T12:01:38;6.15;;;2.47;;
85293;SDS011;76388;43.958;2.882;2024-03-17T12:04:05;7.40;;;2.90;;
85293;SDS011;76388;43.958;2.882;2024-03-17T12:06:33;7.40;;;3.25;;
85293;SDS011;76388;43.958;2.882;2024-03-17T12:09:19;6.72;;;2.90;;
85293;SDS011;76388;43.958;2.882;2024-03-17T12:11:47;7.03;;;2.92;;
85293;SDS011;76388;43.958;2.882;2024-03-17T12:14:17;7.43;;;2.90;;
85293;SDS011;76388;43.958;2.882;2024-03-17T12:16:46;8.57;;;2.95;;
85293;SDS011;76388;43.958;2.882;2024-03-17T12:19:14;7.05;;;2.88;;
85293;SDS011;76388;43.958;2.882;2024-03-17T12:21:43;6.13;;;2.42;;
85293;SDS011;76388;43.958;2.882;2024-03-17T12:24:14;6.78;;;2.63;;
85293;SDS011;76388;43.958;2.882;2024-03-17T12:26:43;7.32;;;2.88;;
85293;SDS011;76388;43.958;2.882;2024-03-17T12:29:23;6.57;;;2.80;;
85293;SDS011;76388;43.958;2.882;2024-03-17T12:31:53;7.55;;;3.08;;
85293;SDS011;76388;43.958;2.882;2024-03-17T12:34:21;7.22;;;2.70;;
85293;SDS011;76388;43.958;2.882;2024-03-17T12:36:48;6.57;;;2.85;;
85293;SDS011;76388;43.958;2.882;2024-03-17T12:39:18;6.75;;;3.10;;
85293;SDS011;76388;43.958;2.882;2024-03-17T12:42:00;7.60;;;3.00;;
85293;SDS011;76388;43.958;2.882;2024-03-17T12:44:29;7.15;;;2.83;;
85293;SDS011;76388;43.958;2.882;2024-03-17T12:46:57;7.25;;;2.92;;
85293;SDS011;76388;43.958;2.882;2024-03-17T12:49:26;6.88;;;3.00;;
85293;SDS011;76388;43.958;2.882;2024-03-17T12:51:53;7.82;;;2.97;;
85293;SDS011;76388;43.958;2.882;2024-03-17T12:54:20;7.57;;;2.55;;
85293;SDS011;76388;43.958;2.882;2024-03-17T12:56:49;8.43;;;2.70;;
85293;SDS011;76388;43.958;2.882;2024-03-17T12:59:36;6.07;;;2.53;;
85293;SDS011;76388;43.958;2.882;2024-03-17T13:02:23;6.75;;;2.97;;
85293;SDS011;76388;43.958;2.882;2024-03-17T13:05:05;6.82;;;2.70;;
85293;SDS011;76388;43.958;2.882;2024-03-17T13:07:33;7.07;;;2.92;;
85293;SDS011;76388;43.958;2.882;2024-03-17T13:09:59;6.28;;;2.65;;
85293;SDS011;76388;43.958;2.882;2024-03-17T13:12:25;7.80;;;2.90;;
85293;SDS011;76388;43.958;2.882;2024-03-17T13:14:52;6.97;;;3.10;;
85293;SDS011;76388;43.958;2.882;2024-03-17T13:17:19;6.47;;;2.67;;
85293;SDS011;76388;43.958;2.882;2024-03-17T13:19:45;6.95;;;2.55;;
85293;SDS011;76388;43.958;2.882;2024-03-17T13:22:12;7.13;;;2.65;;
85293;SDS011;76388;43.958;2.882;2024-03-17T13:24:39;5.93;;;2.35;;
85293;SDS011;76388;43.958;2.882;2024-03-17T13:27:05;6.00;;;2.53;;
85293;SDS011;76388;43.958;2.882;2024-03-17T13:29:34;6.20;;;2.45;;
85293;SDS011;76388;43.958;2.882;2024-03-17T13:32:03;5.28;;;2.50;;
85293;SDS011;76388;43.958;2.882;2024-03-17T13:34:29;7.20;;;2.70;;
85293;SDS011;76388;43.958;2.882;2024-03-17T13:36:56;7.65;;;2.53;;
85293;SDS011;76388;43.958;2.882;2024-03-17T13:39:22;6.95;;;2.67;;
85293;SDS011;76388;43.958;2.882;2024-03-17T13:41:53;7.18;;;2.67;;
85293;SDS011;76388;43.958;2.882;2024-03-17T13:44:22;6.18;;;2.80;;
85293;SDS011;76388;43.958;2.882;2024-03-17T13:46:48;7.18;;;2.58;;
85293;SDS011;76388;43.958;2.882;2024-03-17T13:49:14;6.55;;;2.65;;
85293;SDS011;76388;43.958;2.882;2024-03-17T13:51:40;6.63;;;2.38;;
85293;SDS011;76388;43.958;2.882;2024-03-17T13:54:06;6.15;;;2.42;;
85293;SDS011;76388;43.958;2.882;2024-03-17T13:56:33;7.85;;;2.72;;
85293;SDS011;76388;43.958;2.882;2024-03-17T13:58:59;7.03;;;2.65;;
85293;SDS011;76388;43.958;2.882;2024-03-17T14:01:25;7.50;;;2.63;;
85293;SDS011;76388;43.958;2.882;2024-03-17T14:03:51;6.57;;;2.85;;
85293;SDS011;76388;43.958;2.882;2024-03-17T14:06:18;5.80;;;2.60;;
85293;SDS011;76388;43.958;2.882;2024-03-17T14:08:45;6.40;;;2.60;;
85293;SDS011;76388;43.958;2.882;2024-03-17T14:11:12;6.55;;;2.65;;
85293;SDS011;76388;43.958;2.882;2024-03-17T14:13:38;6.25;;;2.85;;
85293;SDS011;76388;43.958;2.882;2024-03-17T14:16:05;6.05;;;2.85;;
85293;SDS011;76388;43.958;2.882;2024-03-17T14:18:31;6.35;;;2.55;;
85293;SDS011;76388;43.958;2.882;2024-03-17T14:20:58;7.18;;;2.63;;
85293;SDS011;76388;43.958;2.882;2024-03-17T14:23:24;6.93;;;2.58;;
85293;SDS011;76388;43.958;2.882;2024-03-17T14:25:50;6.68;;;2.80;;
85293;SDS011;76388;43.958;2.882;2024-03-17T14:28:16;6.88;;;2.53;;
85293;SDS011;76388;43.958;2.882;2024-03-17T14:30:44;6.07;;;2.47;;
85293;SDS011;76388;43.958;2.882;2024-03-17T14:33:10;6.80;;;2.40;;
85293;SDS011;76388;43.958;2.882;2024-03-17T14:35:36;7.15;;;2.40;;
85293;SDS011;76388;43.958;2.882;2024-03-17T14:38:04;6.25;;;2.13;;
85293;SDS011;76388;43.958;2.882;2024-03-17T14:40:30;5.30;;;2.33;;
85293;SDS011;76388;43.958;2.882;2024-03-17T14:42:56;5.35;;;2.03;;
85293;SDS011;76388;43.958;2.882;2024-03-17T14:45:22;5.72;;;2.33;;
85293;SDS011;76388;43.958;2.882;2024-03-17T14:47:49;6.00;;;2.25;;
85293;SDS011;76388;43.958;2.882;2024-03-17T14:50:15;5.10;;;2.42;;
85293;SDS011;76388;43.958;2.882;2024-03-17T14:52:42;7.93;;;2.42;;
85293;SDS011;76388;43.958;2.882;2024-03-17T14:55:09;5.40;;;2.30;;
85293;SDS011;76388;43.958;2.882;2024-03-17T14:57:36;7.75;;;2.60;;
85293;SDS011;76388;43.958;2.882;2024-03-17T15:00:07;7.32;;;2.50;;
85293;SDS011;76388;43.958;2.882;2024-03-17T15:02:41;5.85;;;2.10;;
85293;SDS011;76388;43.958;2.882;2024-03-17T15:05:09;5.43;;;2.03;;
85293;SDS011;76388;43.958;2.882;2024-03-17T15:07:35;5.95;;;2.00;;
85293;SDS011;76388;43.958;2.882;2024-03-17T15:10:01;5.82;;;2.25;;
85293;SDS011;76388;43.958;2.882;2024-03-17T15:12:29;5.45;;;2.08;;
85293;SDS011;76388;43.958;2.882;2024-03-17T15:14:55;6.18;;;2.10;;
85293;SDS011;76388;43.958;2.882;2024-03-17T15:17:21;7.40;;;2.20;;
85293;SDS011;76388;43.958;2.882;2024-03-17T15:19:48;5.32;;;2.13;;
85293;SDS011;76388;43.958;2.882;2024-03-17T15:22:14;6.40;;;2.13;;